New Delhi Safdarjung, India

10:36 PM IST on March 31, 2015 (GMT +0530)
New Delhi - GK2 | | Change Station
CLOSE
Current Station
Personal Weather Station
Location: New Delhi, Delhi
Elevation: 810 ft
Nearby Weather Stations

Elev 810 ft 28.53 °N, 77.24 °E | Updated 46 seconds ago

Haze
Haze
75.2 °F
Feels Like 76 °F
N
1.0
Wind Variable Wind from ENE
Gusts 4.0 mph

Today
High -- | Low -- °F
--% Chance of Precip.
Yesterday
High -- | Low -- °F
Precip. -- in
6:13 AM 6:38 PM
Waxing Gibbous, 87% visible
Pressure 29.86 in
Visibility 1.9 miles
Clouds
Heat Index 76 °F
Dew Point 67 °F
Humidity 76%
Rainfall 0.00 in
Snow Depth Not available.
UV 0.0 out of 12
Pollen Not available.
Air Quality Not available.
Flu Activity Not available.
METAR VIDP 311630Z 09003KT 3000 HZ NSC 24/19 Q1011 NOSIG

More Conditions Fewer Conditions

Pressure 29.86 in
Visibility 1.9 miles
Clouds
Heat Index 76 °F
Dew Point 67 °F
Humidity 76%
Rainfall 0.00 in
Snow Depth Not available.
UV 0.0 out of 12
Pollen Not available.
Air Quality Not available.
Flu Activity Not available.
METAR VIDP 311630Z 09003KT 3000 HZ NSC 24/19 Q1011 NOSIG

More Conditions Fewer Conditions

10-Day Weather Forecast

Almanac

Astronomy

Mar. 31, 2015 Rise Set
Actual Time
Civil Twilight
Nautical Twilight
Astronomical Twilight
Moon
Length of Visible Light
Length of Day
Tomorrow will be .
, % of the Moon is Illuminated

Today's Extremes

Country Highs Country Lows

Community

WunderPhotos

Upload Photos

1,809,787 photos uploaded!

WunderBlogs® & News

Nearby

Air Quality

  Air Quality AQ Index Pollutant
Not available.

Snow Depth

Station Depth Elevation

Earthquake Activity

City Distance Mag. Time & Date
Minimum magnitude displayed is 2.5.

Coastal Water Temperatures

Place Temperature

Stations

Nearby Weather Stations

Station Location Temp. Windchill Dew Point Humidity Wind Precip. Elev Updated Type